Aeroporto :
LOGIN :

Iscrizione | Disclaimer

   EN    FR    IT 

 










Sommario :    VFR   VFR Marginale   IFR   IFR Intensivo   IFR Molto Intensivo
Visibilità : 
Base nubi : 
>= 8 km
>= 3000ft
5 / 8 km
1000 / 3000 ft
1500m / 5 km
500 / 1000 ft
800 / 1500m
200 / 500 ft
< 800m
< 200 ft
Simboli :   Temporali  Nebbia  Neve Forte  Precipitazioni Forti  Vento > 20 kt
SIGMETs :   Varie  Temporali  Ghiacco  Turbolenza  Onda orograficha  Ceneri Vulcaniche






- Altitudine del aeroporto : 358 ft


EGTC - Cranfield

ULTIMO METAR :
  • 121450Z 26008KT 230V300 CAVOK 21/09 Q1027

METARs OBSOLETI :
  • 121420Z 24008KT 210V280 CAVOK 21/08 Q1027
  • 121350Z 25004KT 160V300 CAVOK 20/07 Q1028
  • 121320Z 20006KT 9999 FEW048 21/09 Q1028
  • 121250Z 24007KT 9999 FEW048 19/07 Q1028
  • 121220Z 22006KT 9999 SCT049 20/10 Q1028

TAF TAF EGTC
Valido dal 12 a 09 ore il 12 a 16 ore UTC


120758Z 1209/1216 VRB03KT 9999 FEW045



MetMap, La meteo Aeronautica in un colpo d'occhio ! - Copyright ORBIFLY Dicembre 2007 - Disclaimer

ORBIFLY MET'MAP TEAM :

Programmazione e sviluppo : Alexandra Zaïnal
Concezione : Baudouin d'Aumeries
Aiuto per la programmazione : Marc-Olivier Méhu
Supporto tecnico e logistico : Manuel Goepfert
Aiuto per la traduzione : Arnaldo La Scala

Contatto : metmap@orbifly.com




FONTI E CREDITI :

   NOAA